Time;durP1;ratioP1;P1;durP2;ratioP2;P2;SDS_P1;SDS_P2;PMS_P1;PMS_P2;Temp;Humidity;BMP_temperature;BMP_pressure;BME280_temperature;BME280_humidity;BME280_pressure;Samples;Min_cycle;Max_cycle;Signal;HPM_P1;HPM_P2
2022/05/25 00:01:06;;;;;;;29.37;2.73;;;;;;;24.80;41.68;99023.88;7312467;19;129632;-38
2022/05/25 00:03:33;;;;;;;26.63;2.25;;;;;;;24.77;42.16;99011.91;7312290;19;129002;-37
2022/05/25 00:06:04;;;;;;;31.38;2.65;;;;;;;24.78;41.67;99020.59;7309775;19;131354;-39
2022/05/25 00:08:30;;;;;;;21.73;1.77;;;;;;;24.70;42.02;99012.75;7309341;19;130252;-38
2022/05/25 00:10:56;;;;;;;30.23;2.80;;;;;;;24.78;41.98;99020.59;7310957;19;129029;-38
2022/05/25 00:13:21;;;;;;;18.70;1.60;;;;;;;24.78;41.75;99028.47;7309033;19;153620;-38
2022/05/25 00:15:46;;;;;;;28.80;2.55;;;;;;;24.76;41.45;99033.13;7308625;19;159085;-38
2022/05/25 00:18:11;;;;;;;23.33;1.93;;;;;;;24.76;41.61;99026.03;7308153;19;130634;-37
2022/05/25 00:20:37;;;;;;;29.23;2.57;;;;;;;24.78;41.68;99041.63;7309640;19;155150;-41
2022/05/25 00:23:03;;;;;;;13.27;1.50;;;;;;;24.76;42.02;99046.25;7312298;19;129687;-38
2022/05/25 00:25:33;;;;;;;41.03;3.70;;;;;;;24.76;41.55;99035.75;7310337;19;132258;-39
2022/05/25 00:28:04;;;;;;;21.52;1.90;;;;;;;24.76;41.65;99035.75;7310436;19;130386;-38
2022/05/25 00:30:30;;;;;;;23.75;1.90;;;;;;;24.77;42.05;99040.00;7312615;19;129098;-41
2022/05/25 00:32:56;;;;;;;30.00;2.33;;;;;;;24.78;41.67;99031.09;7309855;19;130387;-36
2022/05/25 00:35:23;;;;;;;18.33;1.92;;;;;;;24.76;42.14;99025.22;7310416;19;129514;-38
2022/05/25 00:37:49;;;;;;;49.28;4.07;;;;;;;24.79;41.51;99024.88;7310287;19;130345;-39
2022/05/25 00:40:18;;;;;;;44.73;3.67;;;;;;;24.80;41.27;99034.38;7312042;19;129457;-37
2022/05/25 00:42:43;;;;;;;30.90;2.80;;;;;;;24.73;41.71;99034.25;7311799;19;129011;-40
2022/05/25 00:45:10;;;;;;;29.07;2.97;;;;;;;24.78;42.06;99044.25;7309407;19;159119;-36
2022/05/25 00:47:39;;;;;;;28.13;2.42;;;;;;;24.81;41.63;99043.94;7308954;19;129632;-37
2022/05/25 00:50:06;;;;;;;20.55;2.08;;;;;;;24.79;41.88;99045.91;7310804;19;129231;-38
2022/05/25 00:52:31;;;;;;;;;;;;;;;24.75;41.37;99061.22;7311047;19;129250;-38
2022/05/25 00:55:04;;;;;;;25.70;2.17;;;;;;;24.76;41.77;99054.16;7311917;19;130167;-37
2022/05/25 00:57:34;;;;;;;22.08;1.75;;;;;;;24.79;41.62;99054.59;7309168;19;131030;-39
2022/05/25 01:00:04;;;;;;;32.65;2.65;;;;;;;24.72;41.79;99037.06;7310339;19;129041;-38
2022/05/25 01:02:31;;;;;;;26.73;2.38;;;;;;;24.78;42.04;99046.88;7310474;19;129328;-37
2022/05/25 01:04:56;;;;;;;25.30;2.08;;;;;;;24.80;41.47;99044.91;7309779;19;133234;-39
2022/05/25 01:07:49;;;;;;;30.63;2.70;;;;;;;24.79;41.68;99033.56;7307970;19;157513;-37
2022/05/25 01:10:54;;;;;;;33.45;2.75;;;;;;;24.79;41.64;99043.28;7310329;19;129054;-38
2022/05/25 01:13:41;;;;;;;37.72;3.25;;;;;;;24.81;41.56;99042.09;7309364;19;128978;-39
2022/05/25 01:16:35;;;;;;;27.15;2.30;;;;;;;24.81;41.86;99059.72;7308917;19;130782;-38
2022/05/25 01:19:43;;;;;;;22.20;2.30;;;;;;;24.80;41.19;99060.69;7305812;19;131559;-39
2022/05/25 01:22:32;;;;;;;11.93;1.23;;;;;;;24.79;41.81;99061.69;7310300;19;129150;-39
2022/05/25 01:25:24;;;;;;;22.05;1.92;;;;;;;24.79;41.94;99065.09;7310750;19;129498;-39
2022/05/25 01:27:53;;;;;;;23.00;2.03;;;;;;;24.79;42.04;99069.56;7311181;19;129424;-39
2022/05/25 01:30:22;;;;;;;20.45;1.73;;;;;;;24.79;41.66;99066.94;7317315;19;130213;-40
2022/05/25 01:33:03;;;;;;;45.30;3.72;;;;;;;24.82;42.02;99063.97;7316658;19;129163;-41
2022/05/25 01:35:47;;;;;;;40.67;3.55;;;;;;;24.75;41.58;99060.38;7314495;19;130022;-38
2022/05/25 01:38:46;;;;;;;24.00;2.03;;;;;;;24.81;41.89;99078.13;7314445;19;129168;-39
2022/05/25 01:41:30;;;;;;;25.70;2.17;;;;;;;24.79;41.56;99073.00;7317546;19;129686;-39
2022/05/25 01:43:59;;;;;;;30.77;2.67;;;;;;;24.80;41.76;99071.19;7315396;19;129053;-38
2022/05/25 01:46:31;;;;;;;19.75;1.48;;;;;;;24.81;41.60;99072.84;7317086;19;129758;-40
2022/05/25 01:48:58;;;;;;;22.00;2.15;;;;;;;24.80;41.22;99076.47;7312118;19;129159;-38
2022/05/25 01:51:30;;;;;;;;;;;;;;;24.75;41.34;99079.63;7316442;19;131031;-38
2022/05/25 01:54:00;;;;;;;26.50;2.33;;;;;;;24.81;41.35;99091.25;7313461;19;129251;-38
2022/05/25 01:56:28;;;;;;;26.50;2.35;;;;;;;24.80;41.63;99092.22;7315148;19;128777;-38
2022/05/25 01:58:57;;;;;;;37.83;3.10;;;;;;;24.80;41.92;99089.59;7311876;19;131358;-38
2022/05/25 02:01:23;;;;;;;30.85;2.50;;;;;;;24.82;41.70;99100.78;7315383;19;130747;-37
2022/05/25 02:07:03;;;;;;;13.65;1.35;;;;;;;24.85;41.14;99087.28;7315061;19;128819;-38
2022/05/25 02:09:45;;;;;;;26.75;2.22;;;;;;;24.82;41.70;99085.81;7314979;19;129557;-37
2022/05/25 02:12:40;;;;;;;23.52;2.08;;;;;;;24.76;41.81;99072.56;7314336;19;129193;-37
2022/05/25 02:15:14;;;;;;;21.92;1.77;;;;;;;24.80;41.64;99084.34;7315063;19;130030;-38
2022/05/25 02:18:02;;;;;;;42.65;3.50;;;;;;;24.80;41.20;99086.97;7311460;19;154726;-37
2022/05/25 02:20:36;;;;;;;;;;;;;;;24.80;41.87;99087.81;7316111;19;129555;-38
2022/05/25 02:23:11;;;;;;;31.17;2.72;;;;;;;24.80;41.50;99086.97;7314636;19;129786;-37
2022/05/25 02:25:46;;;;;;;28.98;2.65;;;;;;;24.81;41.19;99094.69;7314970;19;129597;-37
2022/05/25 02:28:17;;;;;;;30.17;2.55;;;;;;;24.80;41.11;99093.06;7313572;19;128786;-37
2022/05/25 02:30:49;;;;;;;29.42;2.63;;;;;;;24.80;41.19;99089.59;7313925;19;130100;-38
2022/05/25 02:33:29;;;;;;;22.33;1.75;;;;;;;24.78;41.72;99086.31;7315247;19;130877;-37
2022/05/25 02:35:57;;;;;;;37.92;3.05;;;;;;;24.80;41.87;99098.31;7313583;19;129050;-37
2022/05/25 02:38:23;;;;;;;23.60;1.95;;;;;;;24.79;41.75;99090.59;7312804;19;129281;-37
2022/05/25 02:40:48;;;;;;;31.73;2.87;;;;;;;24.71;41.53;99072.25;7311345;19;130478;-37
2022/05/25 02:43:13;;;;;;;25.20;2.28;;;;;;;24.81;42.07;99078.13;7312742;19;159317;-37
2022/05/25 02:45:39;;;;;;;15.60;1.43;;;;;;;24.80;41.20;99073.81;7314328;19;130220;-37
2022/05/25 02:48:05;;;;;;;32.87;2.87;;;;;;;24.80;41.75;99065.94;7311883;19;129763;-38
2022/05/25 02:50:30;;;;;;;20.87;1.67;;;;;;;24.78;41.12;99063.50;7314821;19;130915;-37
2022/05/25 02:52:56;;;;;;;32.63;2.67;;;;;;;24.82;41.57;99062.16;7312226;19;157917;-41
2022/05/25 02:55:22;;;;;;;32.63;3.03;;;;;;;24.82;41.30;99063.97;7313177;19;128954;-39
2022/05/25 02:57:47;;;;;;;24.48;2.35;;;;;;;24.80;41.44;99072.03;7312142;19;129550;-37
2022/05/25 03:00:13;;;;;;;26.97;2.70;;;;;;;24.77;41.96;99066.28;7311824;19;159010;-37
2022/05/25 03:02:39;;;;;;;12.87;1.30;;;;;;;24.79;41.10;99074.84;7314032;19;130846;-37
2022/05/25 03:05:07;;;;;;;33.97;2.83;;;;;;;24.81;41.75;99078.13;7312768;19;129340;-38
2022/05/25 03:07:32;;;;;;;27.55;2.45;;;;;;;24.76;41.44;99065.47;7312621;19;129229;-40
2022/05/25 03:09:58;;;;;;;22.77;1.97;;;;;;;24.83;41.63;99076.94;7312951;19;130546;-40
2022/05/25 03:12:23;;;;;;;25.37;2.07;;;;;;;24.83;41.78;99078.75;7312581;19;159266;-38
2022/05/25 03:14:48;;;;;;;28.60;2.50;;;;;;;24.81;41.90;99078.13;7313723;19;129322;-38
2022/05/25 03:17:14;;;;;;;30.83;2.75;;;;;;;24.84;41.77;99078.56;7310833;19;154165;-38
2022/05/25 03:19:50;;;;;;;22.38;1.92;;;;;;;24.83;41.35;99082.19;7310013;19;130882;-37
2022/05/25 03:22:15;;;;;;;25.92;2.38;;;;;;;24.84;41.25;99090.91;7312696;19;130465;-38
2022/05/25 03:24:40;;;;;;;33.33;2.83;;;;;;;24.82;41.50;99091.09;7310894;19;154553;-39
2022/05/25 03:27:05;;;;;;;26.27;2.33;;;;;;;24.83;41.58;99099.78;7309905;19;154477;-38
2022/05/25 03:29:32;;;;;;;15.60;1.45;;;;;;;24.75;41.73;99089.31;7311027;19;158432;-37
2022/05/25 03:31:57;;;;;;;26.85;2.33;;;;;;;24.84;41.81;99098.81;7313172;19;129425;-38
2022/05/25 03:34:23;;;;;;;21.92;1.80;;;;;;;24.82;41.17;99114.75;7308707;19;129525;-36
2022/05/25 03:36:48;;;;;;;22.40;2.03;;;;;;;24.72;41.56;99102.78;7312708;19;129167;-37
2022/05/25 03:39:14;;;;;;;47.80;4.05;;;;;;;24.81;42.04;99120.19;7309389;19;129641;-38
2022/05/25 03:41:39;;;;;;;35.50;3.10;;;;;;;24.80;41.90;99115.91;7309208;19;158526;-38
2022/05/25 03:44:05;;;;;;;13.82;1.33;;;;;;;24.82;41.92;99119.19;7312263;19;129505;-37
2022/05/25 03:46:30;;;;;;;26.90;2.13;;;;;;;24.81;41.46;99120.97;7312431;19;130069;-37
2022/05/25 03:48:55;;;;;;;27.58;2.17;;;;;;;24.81;41.62;99125.44;7307017;19;158441;-37
2022/05/25 03:51:21;;;;;;;18.90;1.95;;;;;;;24.82;41.07;99119.19;7310390;19;130400;-37
2022/05/25 03:53:46;;;;;;;41.40;3.63;;;;;;;24.81;41.51;99120.97;7309557;19;129382;-38
2022/05/25 03:56:12;;;;;;;37.43;3.20;;;;;;;24.72;41.62;99106.25;7310249;19;129147;-38
2022/05/25 03:58:37;;;;;;;33.53;2.75;;;;;;;24.80;41.52;99126.41;7306380;19;159131;-37
2022/05/25 04:01:02;;;;;;;26.07;2.03;;;;;;;24.80;41.79;99119.34;7312136;19;161129;-37
2022/05/25 04:03:28;;;;;;;36.83;3.03;;;;;;;24.77;41.17;99113.63;7311471;19;130255;-38
2022/05/25 04:05:53;;;;;;;28.87;2.63;;;;;;;24.84;41.45;99120.63;7309916;19;154947;-37
2022/05/25 04:08:18;;;;;;;29.77;2.55;;;;;;;24.84;41.91;99130.34;7307426;19;130580;-38
2022/05/25 04:10:44;;;;;;;27.00;2.37;;;;;;;24.80;41.82;99124.63;7306448;19;158492;-40
2022/05/25 04:13:09;;;;;;;29.63;2.70;;;;;;;24.78;41.42;99112.63;7307976;19;130751;-41
2022/05/25 04:15:35;;;;;;;35.03;2.88;;;;;;;24.84;41.63;99132.97;7310451;19;153350;-38
2022/05/25 04:18:00;;;;;;;49.38;4.05;;;;;;;24.82;41.21;99127.06;7303790;19;159177;-40
2022/05/25 04:20:27;;;;;;;37.27;3.17;;;;;;;24.81;41.10;99118.34;7307773;19;129676;-38
2022/05/25 04:22:53;;;;;;;30.58;2.38;;;;;;;24.81;41.54;99128.06;7308875;19;129500;-39
2022/05/25 04:25:23;;;;;;;42.23;3.83;;;;;;;24.82;41.88;99132.31;7311273;19;129972;-38
2022/05/25 04:27:50;;;;;;;35.38;3.15;;;;;;;24.82;41.19;99129.69;7306301;19;130149;-41
2022/05/25 04:30:19;;;;;;;25.33;2.15;;;;;;;24.81;41.32;99130.69;7308236;19;129285;-40
2022/05/25 04:32:45;;;;;;;31.63;2.70;;;;;;;24.85;41.08;99137.25;7309249;19;129248;-40
2022/05/25 04:35:12;;;;;;;35.63;3.00;;;;;;;24.84;41.52;99130.34;7307881;19;129112;-40
2022/05/25 04:37:49;;;;;;;50.10;4.10;;;;;;;24.83;41.77;99133.94;7304145;19;131969;-38
2022/05/25 04:40:17;;;;;;;38.55;3.25;;;;;;;24.81;41.53;99142.03;7307791;19;129717;-38
2022/05/25 04:42:43;;;;;;;29.80;2.63;;;;;;;24.85;42.17;99142.50;7307640;19;129258;-39
2022/05/25 04:45:10;;;;;;;44.47;3.47;;;;;;;24.82;41.84;99153.38;7307458;19;129158;-41
2022/05/25 04:47:37;;;;;;;39.45;3.50;;;;;;;24.83;41.77;99147.94;7304480;19;129107;-38
2022/05/25 04:50:03;;;;;;;;;;;;;;;24.80;41.41;99147.44;7308690;19;129835;-39
2022/05/25 04:52:30;;;;;;;17.90;2.10;;;;;;;24.82;41.15;99148.09;7307841;19;129766;-39
2022/05/25 04:54:55;;;;;;;21.85;2.00;;;;;;;24.72;41.45;99150.13;7306083;19;131683;-39
2022/05/25 04:57:20;;;;;;;47.87;4.27;;;;;;;24.82;41.59;99174.41;7306381;19;158592;-39
2022/05/25 04:59:55;;;;;;;36.53;3.30;;;;;;;24.81;41.67;99170.16;7306630;19;130570;-39
2022/05/25 05:02:20;;;;;;;41.45;3.58;;;;;;;24.82;41.40;99174.41;7305692;19;129409;-38
2022/05/25 05:04:46;;;;;;;41.67;3.83;;;;;;;24.80;41.10;99171.13;7314751;19;129863;-38
2022/05/25 05:07:12;;;;;;;34.58;3.42;;;;;;;24.80;41.41;99161.44;7313451;19;130155;-41
2022/05/25 05:09:39;;;;;;;27.42;2.60;;;;;;;24.80;41.52;99161.44;7313554;19;129843;-37
2022/05/25 05:12:05;;;;;;;36.28;2.95;;;;;;;24.79;41.24;99164.22;7314096;19;129809;-39
2022/05/25 05:14:30;;;;;;;29.17;2.43;;;;;;;24.84;41.39;99169.78;7310481;19;130000;-37
2022/05/25 05:16:57;;;;;;;48.97;4.10;;;;;;;24.81;41.65;99162.25;7311392;19;129291;-36
2022/05/25 05:19:24;;;;;;;18.33;1.85;;;;;;;24.82;41.69;99163.88;7308784;19;130947;-40
2022/05/25 05:21:50;;;;;;;33.80;3.13;;;;;;;24.81;41.72;99162.25;7311851;19;128982;-40
2022/05/25 05:24:15;;;;;;;25.07;2.17;;;;;;;24.83;41.29;99157.63;7315288;19;129616;-40
2022/05/25 05:26:41;;;;;;;28.33;2.87;;;;;;;25.11;44.48;99169.31;7314959;19;158085;-38
2022/05/25 05:29:06;;;;;;;24.90;2.43;;;;;;;25.20;45.40;99158.59;7312683;19;135885;-40
2022/05/25 05:31:31;;;;;;;26.70;2.67;;;;;;;25.25;45.00;99176.50;7313226;19;155500;-40
2022/05/25 05:33:56;;;;;;;41.10;3.83;;;;;;;25.29;45.62;99177.78;7313394;19;153095;-39
2022/05/25 05:36:26;;;;;;;22.73;2.30;;;;;;;25.34;45.36;99178.91;7315837;19;140739;-41
2022/05/25 05:38:58;;;;;;;27.27;2.83;;;;;;;25.37;46.00;99175.16;7314068;19;130895;-41
2022/05/25 05:41:28;;;;;;;19.38;2.08;;;;;;;25.40;45.78;99187.94;7315831;19;129191;-40
2022/05/25 05:43:53;;;;;;;29.20;2.45;;;;;;;25.40;46.39;99195.84;7314561;19;130999;-41
2022/05/25 05:46:20;;;;;;;26.63;2.83;;;;;;;25.43;46.32;99203.41;7314761;19;129477;-40
2022/05/25 05:48:46;;;;;;;;;;;;;;;25.51;46.15;99198.91;7314132;19;129445;-39
2022/05/25 05:51:11;;;;;;;25.67;2.80;;;;;;;25.44;46.22;99199.75;7316439;19;130285;-40
2022/05/25 05:53:37;;;;;;;18.33;1.97;;;;;;;25.45;46.03;99204.84;7315669;19;128786;-40
2022/05/25 05:56:03;;;;;;;29.00;3.03;;;;;;;25.47;46.41;99209.94;7313983;19;129316;-40
2022/05/25 05:58:29;;;;;;;23.20;2.38;;;;;;;25.14;43.20;99205.84;7313323;19;130873;-41
2022/05/25 06:00:54;;;;;;;50.57;4.60;;;;;;;24.75;42.67;99211.06;7314007;19;130031;-39
2022/05/25 06:03:19;;;;;;;28.27;2.53;;;;;;;24.70;42.45;99207.28;7311183;19;154403;-38
2022/05/25 06:05:45;;;;;;;56.77;5.43;;;;;;;24.68;42.26;99204.00;7307257;19;158842;-38
2022/05/25 06:08:17;;;;;;;41.27;3.40;;;;;;;24.90;45.79;99208.56;7309846;19;129747;-38
2022/05/25 06:10:43;;;;;;;24.35;2.13;;;;;;;25.14;46.15;99205.84;7313616;19;129580;-40
2022/05/25 06:13:09;;;;;;;20.43;2.17;;;;;;;25.23;46.60;99217.94;7313442;19;129705;-37
2022/05/25 06:21:03;;;;;;;54.85;4.70;;;;;;;25.37;46.93;99238.31;7307703;19;130633;-38
2022/05/25 06:23:28;;;;;;;18.10;1.73;;;;;;;25.27;46.81;99222.69;7314526;19;129578;-37
2022/05/25 06:25:53;;;;;;;25.33;2.53;;;;;;;25.38;47.19;99235.50;7313934;19;158417;-37
2022/05/25 06:28:19;;;;;;;20.37;2.17;;;;;;;25.31;47.42;99229.25;7310151;19;130337;-38
2022/05/25 06:30:44;;;;;;;49.43;3.97;;;;;;;25.39;47.26;99231.88;7311471;19;129720;-38
2022/05/25 06:33:09;;;;;;;57.70;4.93;;;;;;;24.94;43.27;99238.78;7308291;19;154980;-38
2022/05/25 06:35:35;;;;;;;28.13;2.70;;;;;;;24.64;42.52;99239.50;7311835;19;157686;-38
2022/05/25 06:38:01;;;;;;;161.83;13.80;;;;;;;24.63;42.84;99238.66;7306975;19;130349;-38
2022/05/25 06:40:27;;;;;;;31.83;3.07;;;;;;;24.59;42.44;99245.25;7308195;19;130250;-38
2022/05/25 06:42:52;;;;;;;30.20;2.60;;;;;;;24.59;42.75;99262.84;7312734;19;129097;-37
2022/05/25 06:45:18;;;;;;;39.77;3.47;;;;;;;24.85;45.18;99260.84;7304829;19;129776;-38
2022/05/25 06:47:43;;;;;;;41.00;3.50;;;;;;;25.06;46.39;99267.19;7311893;19;158773;-38
2022/05/25 06:50:09;;;;;;;16.07;1.57;;;;;;;25.17;46.73;99273.88;7310523;19;130341;-38
2022/05/25 06:52:34;;;;;;;59.03;4.97;;;;;;;25.24;46.70;99277.47;7312882;19;128881;-38
2022/05/25 06:55:00;;;;;;;24.27;2.27;;;;;;;25.27;46.89;99274.50;7310764;19;130267;-37
2022/05/25 06:57:25;;;;;;;26.30;2.20;;;;;;;25.30;47.03;99271.53;7313041;19;129469;-38
2022/05/25 06:59:51;;;;;;;15.63;1.93;;;;;;;25.25;46.83;99266.78;7306220;19;154706;-39
2022/05/25 07:02:17;;;;;;;42.13;3.77;;;;;;;25.33;47.32;99289.59;7314186;19;128991;-40
2022/05/25 07:04:42;;;;;;;35.33;3.10;;;;;;;25.34;47.36;99296.50;7308624;19;129314;-41
2022/05/25 07:07:07;;;;;;;26.40;2.57;;;;;;;25.30;47.34;99289.94;7312910;19;158527;-40
2022/05/25 07:09:34;;;;;;;17.42;1.77;;;;;;;25.34;47.54;99297.31;7311015;19;155478;-39
2022/05/25 07:11:59;;;;;;;35.63;3.53;;;;;;;24.94;43.27;99291.38;7310467;19;129096;-39
2022/05/25 07:14:25;;;;;;;33.92;3.30;;;;;;;24.61;42.82;99300.28;7310496;19;159433;-39
2022/05/25 07:16:51;;;;;;;31.33;2.85;;;;;;;24.50;42.93;99288.31;7306043;19;130037;-39
2022/05/25 07:19:16;;;;;;;27.90;2.47;;;;;;;24.53;42.38;99289.78;7309088;19;154036;-38
2022/05/25 07:21:41;;;;;;;68.90;6.40;;;;;;;24.45;42.65;99283.56;7303978;19;129321;-40
2022/05/25 07:24:07;;;;;;;24.08;2.13;;;;;;;24.54;42.68;99296.69;7312256;19;158136;-39
2022/05/25 07:26:33;;;;;;;35.20;3.30;;;;;;;24.86;46.04;99296.69;7305733;19;131562;-38
2022/05/25 07:28:59;;;;;;;29.60;2.75;;;;;;;25.06;46.49;99297.91;7311988;19;129386;-40
2022/05/25 07:31:42;;;;;;;33.13;2.73;;;;;;;25.16;46.72;99307.25;7309846;19;128956;-37
2022/05/25 07:34:07;;;;;;;16.75;1.48;;;;;;;25.17;47.40;99316.00;7312389;19;130199;-38
2022/05/25 07:36:34;;;;;;;37.00;3.70;;;;;;;25.19;46.73;99308.72;7305243;19;158493;-39
2022/05/25 07:39:03;;;;;;;29.23;2.65;;;;;;;25.23;47.06;99316.13;7307380;19;130039;-38
2022/05/25 07:41:29;;;;;;;37.22;3.35;;;;;;;25.26;47.03;99325.47;7310495;19;129753;-40
2022/05/25 07:43:57;;;;;;;31.48;2.90;;;;;;;25.24;47.63;99325.66;7305110;19;129271;-40
2022/05/25 07:46:27;;;;;;;25.10;2.30;;;;;;;25.27;47.51;99324.50;7311895;19;130311;-40
2022/05/25 07:48:52;;;;;;;11.00;1.90;;;;;;;25.26;47.24;99325.47;7304252;19;130190;-40
2022/05/25 07:51:18;;;;;;;25.17;2.40;;;;;;;25.28;48.12;99334.03;7312061;19;153999;-39
2022/05/25 07:53:57;;;;;;;23.27;2.20;;;;;;;24.63;43.15;99341.19;7303853;19;129500;-38
2022/05/25 07:56:25;;;;;;;16.27;1.52;;;;;;;24.52;42.99;99333.66;7310930;19;131156;-39
2022/05/25 07:58:50;;;;;;;32.65;2.88;;;;;;;24.38;42.52;99316.72;7305553;19;129508;-39
2022/05/25 08:05:43;;;;;;;11.07;1.13;;;;;;;24.52;42.64;99340.69;7311608;19;154042;-38
2022/05/25 08:06:49;;;;;;;19.20;2.30;;;;;;;24.69;45.25;99347.63;7310978;19;129006;-39
2022/05/25 08:09:14;;;;;;;22.07;2.13;;;;;;;24.90;46.49;99346.13;7303900;19;155437;-40
2022/05/25 08:11:40;;;;;;;38.10;3.63;;;;;;;25.01;47.20;99337.06;7310883;19;153546;-38
2022/05/25 08:14:05;;;;;;;29.03;2.47;;;;;;;25.11;46.61;99342.94;7304755;19;130160;-41
2022/05/25 08:16:31;;;;;;;23.75;2.17;;;;;;;25.12;47.16;99339.34;7307140;19;131333;-38
2022/05/25 08:18:56;;;;;;;25.70;2.50;;;;;;;25.17;47.46;99353.63;7306855;19;154555;-40
2022/05/25 08:21:21;;;;;;;30.23;2.88;;;;;;;25.19;47.80;99356.06;7310010;19;134161;-38
2022/05/25 08:23:47;;;;;;;39.85;3.25;;;;;;;25.20;47.46;99352.47;7306412;19;158367;-38
2022/05/25 08:26:12;;;;;;;28.80;2.60;;;;;;;25.16;47.85;99348.53;7309258;19;157607;-37
2022/05/25 08:28:37;;;;;;;35.33;2.80;;;;;;;25.20;47.54;99353.31;7306160;19;129120;-38
2022/05/25 08:31:03;;;;;;;24.60;2.27;;;;;;;25.22;47.51;99361.03;7308547;19;153975;-38
2022/05/25 08:33:28;;;;;;;92.25;8.05;;;;;;;24.61;43.06;99363.38;7304968;19;158476;-38
2022/05/25 08:35:53;;;;;;;29.90;2.87;;;;;;;24.48;43.32;99365.69;7307574;19;138077;-38
2022/05/25 08:38:21;;;;;;;21.43;2.10;;;;;;;24.48;42.69;99362.06;7304980;19;146255;-41
2022/05/25 08:40:47;;;;;;;31.52;2.85;;;;;;;24.47;43.27;99359.59;7305357;19;129369;-38
2022/05/25 08:43:18;;;;;;;28.10;2.87;;;;;;;24.38;42.45;99350.88;7308575;19;130021;-38
2022/05/25 08:45:48;;;;;;;29.25;2.63;;;;;;;24.47;42.50;99364.84;7305273;19;129324;-38
2022/05/25 08:48:18;;;;;;;29.15;2.42;;;;;;;24.69;44.72;99358.97;7309167;19;130016;-38
2022/05/25 08:50:49;;;;;;;33.97;3.00;;;;;;;24.91;46.42;99360.09;7308717;19;130941;-38
2022/05/25 08:53:17;;;;;;;34.33;3.35;;;;;;;25.02;47.29;99354.50;7306273;19;129825;-38
2022/05/25 08:55:56;;;;;;;18.90;1.67;;;;;;;25.10;47.27;99343.94;7309848;19;130067;-37
2022/05/25 08:58:25;;;;;;;21.67;1.98;;;;;;;25.10;47.74;99349.22;7303901;19;129776;-39
2022/05/25 09:00:53;;;;;;;24.10;2.22;;;;;;;25.04;47.42;99342.00;7310735;19;129471;-41
2022/05/25 09:03:45;;;;;;;29.33;2.75;;;;;;;25.19;47.71;99361.34;7309237;19;130047;-38
2022/05/25 09:06:28;;;;;;;42.22;3.53;;;;;;;25.18;47.63;99362.34;7308966;19;129653;-38
2022/05/25 09:09:04;;;;;;;35.42;3.08;;;;;;;25.09;47.59;99340.50;7307520;19;129100;-41
2022/05/25 09:11:38;;;;;;;24.73;2.22;;;;;;;25.21;47.67;99356.75;7310674;19;129060;-40
2022/05/25 09:14:18;;;;;;;31.80;2.85;;;;;;;24.84;43.16;99357.28;7306784;19;129769;-38
2022/05/25 09:16:46;;;;;;;23.98;2.22;;;;;;;24.51;43.35;99362.72;7308666;19;130418;-38
2022/05/25 09:19:34;;;;;;;29.25;2.78;;;;;;;24.48;42.88;99362.06;7307986;19;129197;-37
2022/05/25 09:22:02;;;;;;;;;;;;;;;24.34;42.62;99354.84;7310969;19;129048;-37
2022/05/25 09:24:28;;;;;;;22.60;2.08;;;;;;;24.41;42.66;99365.50;7309351;19;129527;-38
2022/05/25 09:26:54;;;;;;;31.88;2.88;;;;;;;24.44;42.42;99371.25;7306253;19;130846;-39
2022/05/25 09:29:20;;;;;;;27.97;2.53;;;;;;;24.42;42.75;99375.88;7308800;19;129131;-37
2022/05/25 09:32:01;;;;;;;14.88;1.73;;;;;;;24.78;46.19;99367.66;7309520;19;128903;-40
2022/05/25 09:35:06;;;;;;;20.27;1.92;;;;;;;24.90;47.03;99363.72;7308634;19;130127;-39
2022/05/25 09:37:46;;;;;;;21.77;2.05;;;;;;;25.03;47.15;99366.66;7306726;19;129654;-37
2022/05/25 09:40:45;;;;;;;28.10;2.63;;;;;;;25.09;47.26;99371.25;7309449;19;129891;-38
2022/05/25 09:43:21;;;;;;;31.13;2.97;;;;;;;25.12;47.89;99355.13;7307953;19;129911;-39
2022/05/25 09:45:57;;;;;;;31.25;2.88;;;;;;;25.14;47.30;99353.97;7307955;19;129613;-39
2022/05/25 09:48:26;;;;;;;24.25;2.25;;;;;;;25.13;48.07;99354.13;7307735;19;130418;-37
2022/05/25 09:50:54;;;;;;;19.63;1.98;;;;;;;25.18;47.91;99354.44;7315859;19;128788;-37
2022/05/25 09:53:24;;;;;;;15.55;1.73;;;;;;;25.18;47.74;99357.09;7312908;19;129803;-37
2022/05/25 09:55:58;;;;;;;28.83;2.70;;;;;;;24.79;43.38;99362.22;7312522;19;129240;-36
2022/05/25 09:58:35;;;;;;;38.88;3.42;;;;;;;24.48;43.34;99360.44;7311184;19;129542;-39
2022/05/25 10:01:07;;;;;;;27.17;2.42;;;;;;;24.43;43.56;99359.09;7316533;19;129436;-37
2022/05/25 10:03:40;;;;;;;29.27;2.38;;;;;;;24.42;42.78;99365.34;7315131;19;129352;-38
2022/05/25 10:06:24;;;;;;;21.77;1.98;;;;;;;24.44;42.32;99358.09;7315538;19;130188;-39
2022/05/25 10:09:17;;;;;;;30.05;2.78;;;;;;;24.43;42.19;99366.16;7311026;19;157236;-40
2022/05/25 10:11:49;;;;;;;24.55;2.17;;;;;;;24.46;43.43;99368.47;7316355;19;130641;-38
2022/05/25 10:14:34;;;;;;;25.05;2.15;;;;;;;24.80;47.00;99368.31;7313107;19;129403;-39
2022/05/25 10:17:42;;;;;;;24.40;2.15;;;;;;;24.96;47.01;99358.59;7314488;19;129878;-41
2022/05/25 10:20:24;;;;;;;11.32;1.10;;;;;;;25.03;47.24;99354.31;7311858;19;130457;-38
2022/05/25 10:22:59;;;;;;;23.27;2.35;;;;;;;25.06;47.76;99350.53;7313772;19;155471;-38
2022/05/25 10:25:35;;;;;;;65.97;5.90;;;;;;;25.00;47.69;99340.69;7305433;19;129923;-41
2022/05/25 10:28:03;;;;;;;23.67;2.22;;;;;;;25.10;47.61;99351.84;7314728;19;129523;-39
2022/05/25 10:39:20;;;;;;;23.35;2.03;;;;;;;24.52;43.54;99338.06;7313417;19;129397;-38
2022/05/25 10:42:14;;;;;;;28.10;2.38;;;;;;;24.33;43.15;99339.22;7314439;19;130424;-38
2022/05/25 10:44:56;;;;;;;20.83;1.83;;;;;;;24.29;42.71;99346.63;7313826;19;129481;-38
2022/05/25 10:47:40;;;;;;;31.80;2.95;;;;;;;24.39;43.18;99352.50;7312770;19;129610;-39
2022/05/25 10:50:12;;;;;;;20.05;1.83;;;;;;;24.39;42.56;99355.13;7312651;19;158254;-38
2022/05/25 10:52:42;;;;;;;25.20;2.25;;;;;;;24.41;42.51;99355.81;7312190;19;132121;-36
2022/05/25 10:55:08;;;;;;;21.35;1.85;;;;;;;24.59;44.29;99363.56;7311871;19;128963;-39
2022/05/25 10:57:45;;;;;;;27.73;2.40;;;;;;;24.79;46.75;99350.91;7311104;19;131505;-38
2022/05/25 11:00:35;;;;;;;19.75;1.77;;;;;;;24.91;46.77;99349.56;7311658;19;129703;-36
2022/05/25 11:03:19;;;;;;;35.80;3.35;;;;;;;24.95;46.75;99349.09;7313323;19;130040;-38
2022/05/25 11:06:04;;;;;;;43.70;3.72;;;;;;;25.06;47.62;99342.63;7311731;19;130101;-38
2022/05/25 11:08:50;;;;;;;26.67;2.58;;;;;;;25.06;47.88;99329.47;7311541;19;129357;-38
2022/05/25 11:11:33;;;;;;;26.40;2.53;;;;;;;25.00;48.15;99320.47;7312206;19;130205;-40
2022/05/25 11:14:12;;;;;;;21.25;1.92;;;;;;;25.13;48.23;99330.44;7312268;19;129334;-38
2022/05/25 11:16:48;;;;;;;28.13;2.47;;;;;;;25.15;47.98;99328.47;7312120;19;129357;-39
2022/05/25 11:19:19;;;;;;;23.92;2.17;;;;;;;25.16;48.53;99330.09;7307473;19;128994;-37
2022/05/25 11:22:04;;;;;;;26.85;2.42;;;;;;;24.66;43.63;99326.91;7313037;19;130934;-39
2022/05/25 11:24:51;;;;;;;29.75;2.65;;;;;;;24.43;43.31;99330.19;7310618;19;129361;-41
2022/05/25 11:27:46;;;;;;;28.25;2.47;;;;;;;24.35;43.54;99324.94;7310935;19;129435;-38
2022/05/25 11:30:26;;;;;;;45.38;3.80;;;;;;;24.34;42.81;99338.25;7307757;19;133885;-44
2022/05/25 11:33:11;;;;;;;29.15;2.65;;;;;;;24.31;43.07;99328.88;7308477;19;130984;-38
2022/05/25 11:35:48;;;;;;;30.65;2.53;;;;;;;24.39;43.10;99328.84;7308080;19;131619;-40
2022/05/25 11:38:41;;;;;;;54.30;4.87;;;;;;;24.52;44.85;99332.81;7303026;19;129791;-37
2022/05/25 11:41:12;;;;;;;77.55;6.72;;;;;;;24.76;46.25;99325.75;7308911;19;130244;-40
2022/05/25 11:43:37;;;;;;;29.42;2.42;;;;;;;24.89;46.62;99328.69;7310141;19;129572;-41
2022/05/25 11:46:22;;;;;;;29.30;2.47;;;;;;;24.88;47.14;99315.72;7310206;19;130940;-39
2022/05/25 11:49:15;;;;;;;55.00;5.13;;;;;;;24.98;48.06;99327.69;7302509;19;130035;-38
2022/05/25 11:52:15;;;;;;;23.33;2.00;;;;;;;25.06;47.74;99329.47;7310213;19;129041;-43
2022/05/25 11:54:47;;;;;;;28.98;2.20;;;;;;;25.05;47.93;99322.59;7309627;19;129711;-37
2022/05/25 11:57:31;;;;;;;42.05;3.60;;;;;;;25.06;47.61;99318.97;7307954;19;129847;-40